Time;durP1;ratioP1;P1;durP2;ratioP2;P2;SDS_P1;SDS_P2;PMS_P1;PMS_P2;Temp;Humidity;BMP_temperature;BMP_pressure;BME280_temperature;BME280_humidity;BME280_pressure;Samples;Min_cycle;Max_cycle;Signal;HPM_P1;HPM_P2
2022/07/20 00:00:11;;;;;;;7.58;4.15;;;;;;;13.77;100.00;100492.58;1672211;85;21098;-70
2022/07/20 00:02:38;;;;;;;4.83;3.22;;;;;;;13.75;100.00;100499.26;1674920;85;21594;-71
2022/07/20 00:05:08;;;;;;;9.83;3.67;;;;;;;13.73;100.00;100489.67;1674962;85;21054;-70
2022/07/20 00:07:37;;;;;;;10.18;3.65;;;;;;;13.71;100.00;100487.55;1675242;85;21074;-70
2022/07/20 00:12:49;;;;;;;8.98;4.03;;;;;;;13.67;100.00;100496.58;1675126;85;21090;-71
2022/07/20 00:15:16;;;;;;;7.08;3.80;;;;;;;13.60;100.00;100496.84;1675180;85;21106;-72
2022/07/20 00:17:44;;;;;;;8.78;3.70;;;;;;;13.55;100.00;100493.53;1675087;85;21066;-71
2022/07/20 00:20:14;;;;;;;7.72;4.37;;;;;;;13.49;100.00;100496.44;1674939;85;21569;-72
2022/07/20 00:22:41;;;;;;;5.80;4.00;;;;;;;13.47;100.00;100494.32;1675057;85;21894;-70
2022/07/20 00:25:09;;;;;;;7.65;4.10;;;;;;;13.45;100.00;100486.91;1675000;85;21606;-70
2022/07/20 00:27:36;;;;;;;7.90;4.22;;;;;;;13.44;100.00;100487.84;1674910;85;21201;-70
2022/07/20 00:30:05;;;;;;;5.33;3.70;;;;;;;13.42;100.00;100485.26;1675143;85;21031;-70
2022/07/20 00:32:37;;;;;;;7.62;4.37;;;;;;;13.41;100.00;100490.61;1675134;85;21578;-69
2022/07/20 00:35:08;;;;;;;8.28;3.75;;;;;;;13.40;100.00;100488.43;1675273;85;21746;-71
2022/07/20 00:37:34;;;;;;;6.95;4.00;;;;;;;13.40;100.00;100485.78;1675053;85;21053;-71
2022/07/20 00:40:02;;;;;;;6.33;4.37;;;;;;;13.39;100.00;100479.26;1674951;85;21582;-70
2022/07/20 00:42:29;;;;;;;6.58;4.20;;;;;;;13.34;100.00;100470.63;1675132;85;21648;-71
2022/07/20 00:44:55;;;;;;;7.83;3.45;;;;;;;13.31;100.00;100470.78;1675100;84;21018;-70
2022/07/20 00:47:22;;;;;;;6.53;4.20;;;;;;;13.29;100.00;100480.56;1675075;85;21106;-71
2022/07/20 00:49:48;;;;;;;6.03;3.70;;;;;;;13.27;100.00;100479.73;1675202;85;21021;-70
2022/07/20 00:52:16;;;;;;;7.85;4.37;;;;;;;13.25;100.00;100472.32;1675129;85;21106;-72
2022/07/20 00:54:45;;;;;;;8.23;4.25;;;;;;;13.23;100.00;100477.23;1675257;85;21078;-71
2022/07/20 00:57:12;;;;;;;7.67;4.30;;;;;;;13.19;100.00;100472.98;1674928;85;21102;-71
2022/07/20 00:59:38;;;;;;;7.20;4.30;;;;;;;13.15;100.00;100470.06;1677374;84;21443;-71
2022/07/20 01:02:05;;;;;;;8.03;4.20;;;;;;;13.13;100.00;100471.06;1658244;86;21610;-71
2022/07/20 01:04:33;;;;;;;5.92;4.30;;;;;;;13.09;100.00;100467.70;1689912;83;21585;-71
2022/07/20 01:07:00;;;;;;;10.95;4.30;;;;;;;13.08;100.00;100463.79;1690083;84;21112;-71
2022/07/20 01:09:28;;;;;;;7.67;4.35;;;;;;;13.07;100.00;100468.22;1690252;84;21830;-70
2022/07/20 01:11:55;;;;;;;7.90;4.65;;;;;;;13.09;100.00;100470.34;1690009;84;21294;-70
2022/07/20 01:14:22;;;;;;;5.28;3.22;;;;;;;13.09;100.00;100462.84;1690004;84;21053;-71
2022/07/20 01:16:49;;;;;;;12.88;4.37;;;;;;;13.08;100.00;100472.58;1690233;84;21077;-71
2022/07/20 01:19:15;;;;;;;7.87;4.03;;;;;;;13.08;100.00;100469.93;1690102;84;21035;-70
2022/07/20 01:21:43;;;;;;;4.65;3.52;;;;;;;13.05;100.00;100463.45;1690154;84;21069;-70
2022/07/20 01:24:13;;;;;;;9.83;4.20;;;;;;;13.03;100.00;100469.27;1690161;84;21243;-70
2022/07/20 01:26:41;;;;;;;6.37;3.65;;;;;;;13.01;100.00;100464.50;1689917;84;21074;-71
2022/07/20 01:29:09;;;;;;;6.17;3.27;;;;;;;12.99;100.00;100459.73;1690367;84;21014;-71
2022/07/20 01:31:36;;;;;;;7.25;3.70;;;;;;;12.98;100.00;100465.97;1690050;84;21108;-71
2022/07/20 01:34:03;;;;;;;7.55;3.47;;;;;;;12.96;100.00;100468.66;1690015;84;21556;-69
2022/07/20 01:36:30;;;;;;;9.10;3.70;;;;;;;12.96;100.00;100470.45;1690086;84;21605;-71
2022/07/20 01:38:57;;;;;;;6.00;4.08;;;;;;;12.96;100.00;100475.73;1690582;84;21062;-70
2022/07/20 01:41:26;;;;;;;4.78;3.50;;;;;;;12.98;100.00;100469.93;1690022;84;21062;-71
2022/07/20 01:43:52;;;;;;;7.80;3.52;;;;;;;12.99;100.00;100475.60;1689864;84;21636;-70
2022/07/20 01:46:19;;;;;;;4.55;3.42;;;;;;;12.99;100.00;100471.63;1690055;84;21109;-71
2022/07/20 01:48:45;;;;;;;9.90;4.30;;;;;;;12.96;100.00;100475.73;1690018;84;21640;-71
2022/07/20 01:51:12;;;;;;;10.80;4.60;;;;;;;12.94;100.00;100470.97;1690080;84;21557;-70
2022/07/20 01:53:39;;;;;;;4.62;3.50;;;;;;;12.94;100.00;100471.83;1682059;84;21081;-72
2022/07/20 01:56:07;;;;;;;9.38;4.20;;;;;;;12.91;100.00;100473.75;1662166;85;21133;-70
2022/07/20 01:58:34;;;;;;;6.97;4.58;;;;;;;12.90;100.00;100475.98;1662066;85;21092;-70
2022/07/20 02:01:00;;;;;;;9.13;4.47;;;;;;;12.90;100.00;100472.02;1648224;85;21230;-72
2022/07/20 02:03:27;;;;;;;7.28;4.22;;;;;;;12.88;100.00;100470.75;1667927;86;21056;-70
2022/07/20 02:05:53;;;;;;;4.80;3.25;;;;;;;12.87;100.00;100474.33;1668068;86;21492;-71
2022/07/20 02:08:25;;;;;;;10.75;4.90;;;;;;;12.85;100.00;100470.03;1667954;85;21586;-70
2022/07/20 02:10:49;;;;;;;6.10;3.95;;;;;;;12.85;100.00;100474.00;1667900;86;21044;-70
2022/07/20 02:13:18;;;;;;;9.43;4.08;;;;;;;12.85;100.00;100483.25;1667845;85;21000;-70
2022/07/20 02:18:31;;;;;;;9.50;4.17;;;;;;;12.83;100.00;100474.52;1667815;85;21001;-69
2022/07/20 02:20:59;;;;;;;11.70;4.72;;;;;;;12.83;100.00;100469.23;1668119;86;21071;-70
2022/07/20 02:23:26;;;;;;;7.83;5.40;;;;;;;12.82;100.00;100478.09;1667853;86;21079;-70
2022/07/20 02:25:52;;;;;;;11.20;3.83;;;;;;;12.80;100.00;100476.83;1667974;85;21860;-71
2022/07/20 02:28:19;;;;;;;10.32;4.15;;;;;;;12.78;100.00;100473.38;1667794;86;21641;-71
2022/07/20 02:30:46;;;;;;;9.70;4.62;;;;;;;12.77;100.00;100473.00;1668121;86;21540;-71
2022/07/20 02:33:14;;;;;;;7.12;4.00;;;;;;;12.80;100.00;100481.64;1667722;86;22076;-72
2022/07/20 02:35:42;;;;;;;8.13;4.47;;;;;;;12.80;100.00;100479.00;1667913;85;21083;-71
2022/07/20 02:38:08;;;;;;;8.25;3.92;;;;;;;12.76;100.00;100481.36;1667963;86;21654;-71
2022/07/20 02:40:35;;;;;;;7.55;4.25;;;;;;;12.75;100.00;100478.33;1667987;86;21091;-70
2022/07/20 02:43:05;;;;;;;5.97;3.92;;;;;;;12.77;100.00;100483.56;1667795;86;21095;-71
2022/07/20 02:45:31;;;;;;;5.17;3.22;;;;;;;12.78;100.00;100479.52;1668210;86;21077;-69
2022/07/20 02:48:02;;;;;;;8.40;4.45;;;;;;;12.83;100.00;100474.52;1664854;86;21059;-71
2022/07/20 02:50:27;;;;;;;8.65;4.20;;;;;;;12.89;100.00;100466.34;1667857;86;21482;-70
2022/07/20 02:52:53;;;;;;;10.28;4.30;;;;;;;12.95;100.00;100463.42;1668287;85;21561;-70
2022/07/20 02:55:20;;;;;;;7.12;4.10;;;;;;;13.00;100.00;100457.52;1668040;86;21091;-72
2022/07/20 02:57:47;;;;;;;9.50;3.62;;;;;;;13.10;100.00;100462.80;1668154;85;21125;-71
2022/07/20 03:00:15;;;;;;;12.50;4.75;;;;;;;13.14;100.00;100467.04;1668002;85;21061;-69
2022/07/20 03:02:42;;;;;;;7.97;4.10;;;;;;;13.25;100.00;100460.42;1667848;86;21699;-71
2022/07/20 03:05:09;;;;;;;10.23;4.28;;;;;;;13.33;100.00;100466.28;1667927;86;21150;-71
2022/07/20 03:09:35;;;;;;;7.95;3.87;;;;;;;13.49;100.00;100469.98;1786082;79;22486;-70
2022/07/20 03:12:01;;;;;;;10.18;4.87;;;;;;;13.56;100.00;100468.78;1748055;82;21053;-71
2022/07/20 03:14:28;;;;;;;5.45;3.80;;;;;;;13.65;100.00;100470.17;1747964;82;21131;-71
2022/07/20 03:16:55;;;;;;;6.78;4.90;;;;;;;13.73;100.00;100468.49;1747942;82;20989;-71
2022/07/20 03:19:23;;;;;;;6.45;5.05;;;;;;;13.90;100.00;100473.05;1747978;82;21073;-72
2022/07/20 03:21:50;;;;;;;7.08;5.55;;;;;;;14.05;100.00;100473.66;1747942;82;21029;-70
2022/07/20 03:24:17;;;;;;;11.35;5.45;;;;;;;14.16;100.00;100477.14;1747918;82;21053;-70
2022/07/20 03:26:45;;;;;;;8.05;5.85;;;;;;;14.24;100.00;100478.95;1748147;82;20989;-71
2022/07/20 03:29:12;;;;;;;9.10;5.70;;;;;;;14.39;100.00;100470.30;1748022;82;21089;-70
2022/07/20 03:31:39;;;;;;;12.00;6.72;;;;;;;14.52;100.00;100473.23;1748022;82;21045;-70
2022/07/20 03:34:05;;;;;;;12.90;6.58;;;;;;;14.67;100.00;100467.67;1747963;82;21022;-71
2022/07/20 03:36:32;;;;;;;14.87;7.50;;;;;;;14.83;100.00;100467.31;1748376;82;21066;-71
2022/07/20 03:38:58;;;;;;;12.40;7.20;;;;;;;15.04;100.00;100465.38;1748068;82;21307;-71
2022/07/20 03:41:24;;;;;;;16.67;6.28;;;;;;;15.21;100.00;100464.55;1748093;82;21034;-71
2022/07/20 03:43:51;;;;;;;14.47;6.85;;;;;;;15.42;100.00;100461.73;1747813;82;21657;-71
2022/07/20 03:46:18;;;;;;;11.28;5.55;;;;;;;15.63;100.00;100463.73;1747968;82;21047;-71
2022/07/20 03:48:45;;;;;;;9.70;6.25;;;;;;;15.88;100.00;100473.47;1747744;82;21092;-70
2022/07/20 03:51:11;;;;;;;7.80;5.17;;;;;;;16.19;100.00;100474.45;1748306;82;21165;-71
2022/07/20 03:53:38;;;;;;;7.72;4.78;;;;;;;16.49;100.00;100461.73;1747866;82;21058;-71
2022/07/20 03:56:06;;;;;;;11.25;5.03;;;;;;;16.84;100.00;100458.89;1747123;82;21057;-70
2022/07/20 03:58:33;;;;;;;7.92;4.78;;;;;;;17.21;100.00;100460.27;1748001;82;21014;-71
2022/07/20 04:01:00;;;;;;;5.42;3.90;;;;;;;17.54;100.00;100461.84;1718890;82;21580;-70
2022/07/20 04:03:26;;;;;;;8.40;5.30;;;;;;;17.91;100.00;100461.80;1747947;82;21537;-71
2022/07/20 04:05:53;;;;;;;8.55;4.60;;;;;;;18.29;100.00;100469.66;1748025;82;20970;-72
2022/07/20 04:08:21;;;;;;;12.47;4.72;;;;;;;18.38;100.00;100460.62;1743046;81;21018;-73
2022/07/20 04:10:48;;;;;;;7.33;4.80;;;;;;;18.49;100.00;100460.39;1734980;82;21105;-70
2022/07/20 04:13:14;;;;;;;7.80;4.50;;;;;;;18.71;100.00;100461.19;1735219;82;21054;-71
2022/07/20 04:15:41;;;;;;;6.65;4.42;;;;;;;19.06;100.00;100453.04;1734761;82;21829;-69
2022/07/20 04:18:07;;;;;;;6.62;4.37;;;;;;;19.48;100.00;100451.06;1734971;82;21022;-71
2022/07/20 04:20:34;;;;;;;7.15;4.42;;;;;;;19.79;100.00;100446.80;1734603;81;21565;-70
2022/07/20 04:23:01;;;;;;;5.28;4.28;;;;;;;20.08;100.00;100441.56;1734390;82;21089;-71
2022/07/20 04:25:28;;;;;;;5.58;3.83;;;;;;;20.35;100.00;100434.31;1734116;82;21146;-71
2022/07/20 04:27:57;;;;;;;6.42;4.53;;;;;;;20.54;100.00;100436.00;1734254;82;21139;-71
2022/07/20 04:30:26;;;;;;;5.83;4.33;;;;;;;20.84;100.00;100430.21;1734348;82;21502;-70
2022/07/20 04:32:52;;;;;;;5.87;4.12;;;;;;;21.21;98.81;100427.91;1734362;82;21058;-70
2022/07/20 04:35:20;;;;;;;7.03;4.25;;;;;;;21.34;97.45;100425.50;1734278;82;21054;-70
2022/07/20 04:37:46;;;;;;;5.75;3.60;;;;;;;21.41;96.00;100428.59;1734496;82;21233;-73
2022/07/20 04:40:12;;;;;;;10.65;4.05;;;;;;;21.43;94.48;100430.67;1734079;82;21792;-71
2022/07/20 04:42:40;;;;;;;6.15;3.77;;;;;;;21.40;95.38;100425.56;1734030;82;21106;-70
2022/07/20 04:45:09;;;;;;;9.83;4.03;;;;;;;21.39;93.32;100422.47;1734063;82;21096;-71
2022/07/20 04:47:35;;;;;;;5.92;3.77;;;;;;;21.43;93.93;100417.27;1734027;82;21135;-70
2022/07/20 04:50:03;;;;;;;6.78;3.83;;;;;;;21.65;93.48;100420.48;1734253;82;20983;-70
2022/07/20 04:52:30;;;;;;;4.90;3.65;;;;;;;22.00;90.82;100415.47;1734123;82;21210;-70
2022/07/20 04:54:56;;;;;;;5.00;3.55;;;;;;;22.37;89.15;100415.20;1710440;81;21120;-71
2022/07/20 04:57:23;;;;;;;8.35;4.67;;;;;;;22.61;85.34;100416.33;1704990;84;22267;-72
2022/07/20 04:59:50;;;;;;;10.15;5.55;;;;;;;22.75;84.97;100402.63;1704812;84;21069;-71
2022/07/20 05:02:16;;;;;;;9.05;6.92;;;;;;;22.99;85.26;100395.70;1704709;84;21069;-71
2022/07/20 05:04:46;;;;;;;13.25;9.23;;;;;;;23.25;82.43;100397.98;1704768;84;21241;-70
2022/07/20 05:07:11;;;;;;;11.30;8.20;;;;;;;23.44;80.95;100393.21;1670902;84;21076;-71
2022/07/20 05:09:38;;;;;;;9.53;7.42;;;;;;;23.51;80.34;100390.34;1669913;84;21046;-72
2022/07/20 05:12:05;;;;;;;13.58;9.48;;;;;;;23.68;80.24;100385.36;1657425;85;21125;-72
2022/07/20 05:14:32;;;;;;;14.23;7.78;;;;;;;23.91;79.93;100386.04;1709037;83;21596;-71
2022/07/20 05:17:00;;;;;;;11.70;8.10;;;;;;;24.02;77.34;100371.98;1699633;84;21057;-72
2022/07/20 05:19:27;;;;;;;10.55;7.20;;;;;;;23.98;78.11;100378.62;1709162;83;21612;-71
2022/07/20 05:21:55;;;;;;;8.73;6.47;;;;;;;23.99;77.94;100372.23;1699685;84;21088;-72
2022/07/20 05:24:23;;;;;;;7.62;5.70;;;;;;;24.00;75.88;100368.58;1709056;83;21060;-72
2022/07/20 05:26:50;;;;;;;9.48;6.00;;;;;;;24.11;75.63;100372.13;1699725;84;21068;-71
2022/07/20 05:29:18;;;;;;;6.42;5.20;;;;;;;24.25;75.27;100369.06;1709291;83;21191;-71
2022/07/20 05:31:46;;;;;;;7.78;4.80;;;;;;;24.47;75.52;100364.77;1699589;84;21033;-72
2022/07/20 05:34:13;;;;;;;4.58;3.50;;;;;;;24.73;74.39;100354.78;1709540;83;21112;-71
2022/07/20 05:36:40;;;;;;;4.65;3.30;;;;;;;24.87;71.50;100351.67;1699988;84;21018;-71
2022/07/20 05:39:09;;;;;;;8.35;3.85;;;;;;;25.06;72.47;100341.86;1709416;83;21041;-71
2022/07/20 05:41:37;;;;;;;5.20;3.60;;;;;;;25.17;69.82;100338.99;1699757;84;21294;-72
2022/07/20 05:44:03;;;;;;;5.00;2.87;;;;;;;25.19;68.71;100342.42;1709435;83;21033;-72
2022/07/20 05:46:31;;;;;;;5.55;2.60;;;;;;;25.23;69.06;100345.16;1699865;84;21097;-71
2022/07/20 05:48:59;;;;;;;4.47;2.95;;;;;;;25.25;68.22;100335.08;1709277;83;21037;-72
2022/07/20 05:51:25;;;;;;;5.37;2.72;;;;;;;25.23;67.68;100338.42;1699940;84;21069;-71
2022/07/20 05:53:52;;;;;;;3.90;2.52;;;;;;;25.18;67.51;100336.67;1709174;83;21235;-72
2022/07/20 05:56:19;;;;;;;5.10;2.70;;;;;;;25.14;66.75;100339.27;1699936;84;21057;-71
2022/07/20 05:58:45;;;;;;;3.45;2.62;;;;;;;25.28;63.83;100346.94;1709312;83;21057;-72
2022/07/20 06:01:13;;;;;;;6.42;2.90;;;;;;;25.52;62.98;100342.88;1699630;84;21053;-72
2022/07/20 06:03:40;;;;;;;3.40;2.58;;;;;;;25.82;61.95;100330.10;1709408;83;21021;-71
2022/07/20 06:06:08;;;;;;;5.62;2.85;;;;;;;26.11;59.00;100331.28;1699781;84;21105;-71
2022/07/20 06:08:37;;;;;;;4.78;2.25;;;;;;;26.26;59.14;100331.62;1711070;83;21044;-70
2022/07/20 06:11:04;;;;;;;3.08;2.45;;;;;;;26.44;59.35;100328.42;1719373;83;21040;-72
2022/07/20 06:13:31;;;;;;;3.52;2.58;;;;;;;26.83;58.18;100321.35;1690611;84;21115;-71
2022/07/20 06:15:58;;;;;;;5.08;2.50;;;;;;;27.13;56.56;100315.14;1720193;83;21127;-72
2022/07/20 06:18:25;;;;;;;6.25;2.60;;;;;;;27.38;56.25;100315.64;1701128;84;21257;-71
2022/07/20 06:20:53;;;;;;;3.85;2.72;;;;;;;27.58;54.95;100311.33;1701115;84;21082;-73
2022/07/20 06:23:21;;;;;;;5.30;2.90;;;;;;;27.59;54.14;100308.47;1719687;83;21071;-72
2022/07/20 06:25:47;;;;;;;4.35;2.80;;;;;;;27.62;54.84;100299.17;1690791;84;21067;-72
2022/07/20 06:28:14;;;;;;;2.95;2.33;;;;;;;27.67;53.91;100293.27;1720654;83;21083;-71
2022/07/20 06:30:40;;;;;;;4.00;2.50;;;;;;;27.67;54.72;100287.86;1720298;83;21289;-74
2022/07/20 06:33:07;;;;;;;3.72;2.72;;;;;;;27.53;54.07;100291.53;1720463;83;21071;-71
2022/07/20 06:35:36;;;;;;;6.85;3.08;;;;;;;27.36;54.36;100287.91;1720282;83;21119;-72
2022/07/20 06:38:02;;;;;;;3.77;2.65;;;;;;;27.53;54.90;100286.62;1720782;83;21116;-72
2022/07/20 06:40:31;;;;;;;5.47;2.40;;;;;;;27.76;52.52;100291.78;1701491;84;21050;-73
2022/07/20 06:42:58;;;;;;;3.90;2.52;;;;;;;27.87;52.73;100292.02;1701457;84;21525;-72
2022/07/20 06:45:24;;;;;;;4.05;2.90;;;;;;;27.76;52.57;100285.02;1701301;84;21065;-71
2022/07/20 06:47:51;;;;;;;8.63;3.15;;;;;;;27.55;52.08;100292.73;1701503;84;21591;-72
2022/07/20 06:50:17;;;;;;;6.05;3.02;;;;;;;27.45;53.38;100290.16;1675489;84;21077;-70
2022/07/20 06:52:44;;;;;;;5.22;2.80;;;;;;;27.53;53.25;100292.04;1719920;83;21124;-73
2022/07/20 06:55:11;;;;;;;8.23;2.80;;;;;;;27.53;52.73;100289.34;1719743;83;21121;-73
2022/07/20 06:57:37;;;;;;;4.42;2.90;;;;;;;27.53;52.61;100283.92;1719866;83;21036;-72
2022/07/20 07:00:07;;;;;;;5.22;3.08;;;;;;;27.51;52.43;100280.53;1719748;83;21056;-72
2022/07/20 07:02:34;;;;;;;7.22;3.00;;;;;;;27.62;51.96;100278.89;1719945;83;21103;-73
2022/07/20 07:05:01;;;;;;;4.12;2.92;;;;;;;27.89;51.36;100283.75;1720037;83;21068;-73
2022/07/20 07:07:29;;;;;;;4.83;3.00;;;;;;;28.27;51.46;100271.44;1719791;83;21048;-71
2022/07/20 07:09:56;;;;;;;5.83;3.33;;;;;;;28.63;50.37;100273.33;1719624;83;21021;-72
2022/07/20 07:12:23;;;;;;;3.50;2.80;;;;;;;28.69;49.90;100264.17;1720167;83;21142;-71
2022/07/20 07:14:49;;;;;;;5.45;3.12;;;;;;;28.65;48.80;100256.40;1719763;83;21655;-73
2022/07/20 07:17:16;;;;;;;6.92;3.20;;;;;;;28.63;47.38;100249.47;1719983;83;21911;-71
2022/07/20 07:19:44;;;;;;;6.90;2.75;;;;;;;28.52;47.48;100257.42;1719684;83;21645;-72
2022/07/20 07:22:11;;;;;;;5.60;3.17;;;;;;;28.39;48.21;100248.92;1693147;83;21052;-71
2022/07/20 07:24:38;;;;;;;5.08;3.08;;;;;;;28.21;48.44;100245.89;1719670;83;21060;-71
2022/07/20 07:27:04;;;;;;;5.47;3.25;;;;;;;28.12;49.71;100243.35;1719751;83;21099;-73
2022/07/20 07:29:32;;;;;;;5.70;3.35;;;;;;;28.12;49.56;100237.42;1719620;83;21055;-72
2022/07/20 07:31:59;;;;;;;6.53;3.15;;;;;;;28.25;47.94;100234.20;1720027;83;21799;-72
2022/07/20 07:34:28;;;;;;;5.80;3.20;;;;;;;28.08;48.47;100233.35;1719698;83;21041;-72
2022/07/20 07:36:54;;;;;;;6.05;3.40;;;;;;;28.01;48.97;100224.22;1719932;83;21033;-72
2022/07/20 07:39:22;;;;;;;4.10;2.95;;;;;;;27.93;49.25;100222.84;1719764;83;21017;-72
2022/07/20 07:41:48;;;;;;;4.37;3.20;;;;;;;28.06;49.07;100216.94;1719916;83;22126;-73
2022/07/20 07:44:15;;;;;;;3.50;3.02;;;;;;;28.10;48.57;100219.14;1719757;83;21161;-72
2022/07/20 07:46:42;;;;;;;5.17;3.35;;;;;;;28.11;48.54;100212.70;1719735;83;21033;-72
2022/07/20 07:49:09;;;;;;;5.70;3.50;;;;;;;28.34;47.94;100205.27;1719957;83;21567;-72
2022/07/20 07:51:37;;;;;;;5.70;3.50;;;;;;;28.58;47.54;100201.21;1719694;83;21059;-72
2022/07/20 07:54:04;;;;;;;6.92;3.60;;;;;;;28.89;46.07;100205.03;1720149;83;21579;-72
2022/07/20 07:56:31;;;;;;;6.00;3.70;;;;;;;29.09;45.91;100198.73;1720088;83;21263;-72
2022/07/20 07:58:58;;;;;;;6.30;3.50;;;;;;;29.22;45.95;100204.45;1719907;83;21177;-72
2022/07/20 08:01:25;;;;;;;5.40;3.40;;;;;;;29.35;44.88;100198.44;1719922;83;21104;-72
2022/07/20 08:03:52;;;;;;;8.00;3.58;;;;;;;29.27;44.81;100197.98;1720015;83;21064;-73
2022/07/20 08:06:19;;;;;;;3.80;3.40;;;;;;;29.47;43.97;100196.52;1720138;83;21627;-71
2022/07/20 08:08:46;;;;;;;4.42;3.30;;;;;;;29.65;43.87;100195.38;1720162;83;21776;-71
2022/07/20 08:11:13;;;;;;;5.55;3.60;;;;;;;29.72;41.83;100188.77;1719466;83;21076;-74
2022/07/20 08:13:41;;;;;;;5.60;3.52;;;;;;;29.52;41.75;100186.98;1719504;83;21049;-72
2022/07/20 08:16:08;;;;;;;7.90;3.80;;;;;;;29.34;42.69;100176.42;1719821;83;21103;-72
2022/07/20 08:18:35;;;;;;;4.10;3.20;;;;;;;29.19;43.33;100181.22;1719809;83;21060;-72
2022/07/20 08:21:02;;;;;;;5.78;3.47;;;;;;;29.00;44.02;100189.75;1719569;83;21156;-71
2022/07/20 08:23:29;;;;;;;6.22;3.20;;;;;;;29.02;44.37;100178.22;1719651;83;21080;-72
2022/07/20 08:25:55;;;;;;;4.00;3.60;;;;;;;29.12;42.98;100172.09;1720039;83;21104;-71
2022/07/20 08:28:23;;;;;;;5.97;3.62;;;;;;;29.25;43.03;100171.03;1719629;83;21580;-71
2022/07/20 08:30:51;;;;;;;4.62;3.27;;;;;;;29.39;43.35;100156.38;1720178;83;21020;-72
2022/07/20 08:33:18;;;;;;;6.90;3.98;;;;;;;29.57;42.80;100155.59;1719919;83;21150;-73
2022/07/20 08:35:45;;;;;;;6.90;3.90;;;;;;;29.57;41.86;100146.61;1692946;83;21056;-71
2022/07/20 08:38:11;;;;;;;6.22;3.70;;;;;;;29.63;42.06;100141.80;1719988;83;21072;-72
2022/07/20 08:40:38;;;;;;;6.70;3.60;;;;;;;29.66;40.93;100150.95;1719685;83;21572;-73
2022/07/20 08:43:06;;;;;;;7.60;4.00;;;;;;;29.64;40.65;100147.58;1719624;83;21017;-72
2022/07/20 08:45:34;;;;;;;5.15;3.65;;;;;;;29.69;40.75;100137.05;1719593;83;21786;-72
2022/07/20 08:48:04;;;;;;;5.90;3.40;;;;;;;29.69;41.00;100128.91;1719777;83;21087;-72
2022/07/20 08:50:32;;;;;;;6.78;3.47;;;;;;;29.57;40.93;100119.48;1719317;83;21520;-71
2022/07/20 08:52:59;;;;;;;6.05;4.03;;;;;;;29.25;41.57;100129.51;1719736;83;21567;-72
2022/07/20 08:55:27;;;;;;;4.30;3.42;;;;;;;29.02;41.79;100122.13;1719795;83;21832;-72
2022/07/20 08:57:54;;;;;;;5.03;3.50;;;;;;;28.96;42.24;100130.95;1719476;83;21282;-73
2022/07/20 09:00:21;;;;;;;6.55;3.72;;;;;;;28.69;42.49;100124.63;1719545;83;21065;-73
2022/07/20 09:03:03;;;;;;;8.05;4.40;;;;;;;28.43;43.12;100110.28;1719674;83;21079;-73
2022/07/20 09:05:36;;;;;;;5.75;3.70;;;;;;;28.24;44.07;100104.73;1719018;83;21075;-74
2022/07/20 09:08:04;;;;;;;4.22;3.42;;;;;;;28.11;44.41;100092.23;1719610;83;21096;-71
2022/07/20 09:10:37;;;;;;;6.35;3.90;;;;;;;28.12;44.38;100084.47;1708437;83;21077;-72
2022/07/20 09:13:08;;;;;;;9.73;4.00;;;;;;;28.11;44.17;100094.11;1698772;84;21580;-73
2022/07/20 09:15:43;;;;;;;15.60;4.35;;;;;;;28.04;44.19;100085.82;1699181;84;21593;-71
2022/07/20 09:18:20;;;;;;;6.17;3.95;;;;;;;28.20;43.98;100087.66;1698926;84;21581;-73
2022/07/20 09:20:54;;;;;;;5.97;3.25;;;;;;;28.37;43.60;100085.78;1698728;84;21061;-72
2022/07/20 09:23:35;;;;;;;8.00;3.52;;;;;;;28.59;42.78;100076.91;1698905;83;21777;-72
2022/07/20 09:26:03;;;;;;;5.58;4.08;;;;;;;28.76;42.73;100064.64;1698203;84;21595;-73
2022/07/20 09:28:43;;;;;;;6.67;3.85;;;;;;;28.98;42.53;100066.57;1699100;84;22197;-72
2022/07/20 09:31:28;;;;;;;7.33;3.85;;;;;;;29.38;41.94;100056.54;1699448;84;21491;-72
2022/07/20 09:34:13;;;;;;;6.25;3.50;;;;;;;29.79;41.40;100052.66;1699269;84;21616;-72
2022/07/20 09:36:46;;;;;;;6.33;3.62;;;;;;;29.93;40.67;100036.91;1699247;84;21096;-71
2022/07/20 09:39:18;;;;;;;11.68;3.87;;;;;;;30.03;41.03;100032.59;1699084;84;22086;-73
2022/07/20 09:41:51;;;;;;;4.28;3.40;;;;;;;30.21;41.17;100022.20;1699277;84;21080;-73
2022/07/20 09:44:29;;;;;;;7.97;3.83;;;;;;;30.45;40.12;100018.89;1698984;84;21030;-71
2022/07/20 09:46:55;;;;;;;4.03;3.40;;;;;;;30.44;39.38;100022.66;1699566;84;21087;-71
2022/07/20 09:49:30;;;;;;;7.05;3.42;;;;;;;30.26;39.66;100015.72;1698929;84;21089;-74
2022/07/20 09:51:58;;;;;;;6.10;3.50;;;;;;;30.15;39.78;100003.94;1699406;84;21124;-71
2022/07/20 09:54:25;;;;;;;5.92;3.58;;;;;;;30.10;40.29;99995.52;1699001;84;21556;-72
2022/07/20 09:56:51;;;;;;;6.67;3.70;;;;;;;29.93;40.24;99987.20;1699289;84;21148;-72
2022/07/20 09:59:19;;;;;;;4.53;3.65;;;;;;;29.61;40.99;99993.25;1699062;84;21058;-72
2022/07/20 10:01:53;;;;;;;9.10;3.45;;;;;;;29.47;41.83;99985.41;1699156;84;21918;-73
2022/07/20 10:04:20;;;;;;;6.20;3.85;;;;;;;29.39;41.54;99979.55;1699052;84;21572;-72
2022/07/20 10:06:51;;;;;;;5.75;4.00;;;;;;;29.37;41.96;99978.89;1698837;84;21033;-70
2022/07/20 10:09:19;;;;;;;5.67;3.65;;;;;;;29.30;41.83;99975.22;1699194;84;21100;-72
2022/07/20 10:11:49;;;;;;;;;;;;;;;29.19;42.20;99967.52;1720731;83;21017;-72
2022/07/20 10:14:19;;;;;;;10.20;3.90;;;;;;;29.02;43.09;99970.32;1720097;83;21081;-72
2022/07/20 10:16:50;;;;;;;5.33;3.17;;;;;;;29.06;43.06;99960.81;1720137;83;21112;-71
2022/07/20 10:19:18;;;;;;;6.20;3.20;;;;;;;29.23;43.09;99959.35;1720062;83;21044;-72
2022/07/20 10:21:49;;;;;;;5.45;3.42;;;;;;;29.28;42.78;99950.15;1720034;83;21508;-73
2022/07/20 10:24:25;;;;;;;7.90;3.70;;;;;;;29.25;42.08;99939.16;1720044;83;21064;-72
2022/07/20 10:27:13;;;;;;;7.15;3.33;;;;;;;29.24;42.37;99942.05;1719947;83;21239;-72
2022/07/20 10:29:53;;;;;;;5.03;3.50;;;;;;;29.22;42.39;99928.69;1719847;83;21076;-72
2022/07/20 10:32:24;;;;;;;6.17;3.33;;;;;;;29.30;42.05;99925.05;1719412;83;21020;-72
2022/07/20 10:34:57;;;;;;;7.35;3.72;;;;;;;29.72;42.33;99903.28;1720049;83;21112;-71
2022/07/20 10:37:42;;;;;;;5.37;3.40;;;;;;;30.18;41.21;99905.78;1720006;83;21513;-73
2022/07/20 10:40:14;;;;;;;6.22;3.72;;;;;;;30.17;40.50;99906.83;1719726;83;21088;-72
2022/07/20 10:42:51;;;;;;;13.55;4.05;;;;;;;29.95;40.99;99884.70;1719869;83;21083;-73
2022/07/20 10:45:24;;;;;;;7.62;3.40;;;;;;;29.96;41.18;99893.20;1719812;83;21087;-73
2022/07/20 10:48:04;;;;;;;5.92;3.50;;;;;;;30.03;41.40;99886.81;1719781;83;21052;-72
2022/07/20 10:50:48;;;;;;;6.03;3.10;;;;;;;30.26;40.78;99880.41;1715100;83;21116;-73
2022/07/20 10:53:20;;;;;;;4.83;3.00;;;;;;;30.46;40.12;99877.92;1717168;83;21251;-72
2022/07/20 10:55:51;;;;;;;5.03;3.50;;;;;;;30.46;40.34;99874.72;1663193;86;21579;-71
2022/07/20 10:58:23;;;;;;;6.62;3.27;;;;;;;30.46;40.34;99874.72;1663382;86;21636;-72
2022/07/20 11:00:54;;;;;;;6.90;3.62;;;;;;;30.53;39.78;99868.84;1658084;86;21089;-72
2022/07/20 11:03:25;;;;;;;5.08;3.77;;;;;;;30.51;39.82;99867.34;1673882;85;21530;-72
2022/07/20 11:06:12;;;;;;;5.72;3.52;;;;;;;30.47;39.80;99861.44;1672799;85;21124;-71
2022/07/20 11:08:55;;;;;;;6.90;3.70;;;;;;;30.42;39.64;99853.56;1661718;86;21132;-71
2022/07/20 11:11:27;;;;;;;7.50;3.47;;;;;;;30.48;39.33;99841.91;1663023;85;21055;-72
2022/07/20 11:13:54;;;;;;;4.67;3.42;;;;;;;30.48;39.33;99841.91;1663215;86;21013;-70
2022/07/20 11:16:24;;;;;;;6.37;3.10;;;;;;;30.31;39.35;99832.64;1657814;86;21585;-72
2022/07/20 11:18:53;;;;;;;4.65;3.25;;;;;;;30.18;39.76;99820.23;1672997;85;22237;-72
2022/07/20 11:21:42;;;;;;;6.40;3.30;;;;;;;30.11;40.12;99813.89;1673045;85;21652;-73
2022/07/20 11:24:24;;;;;;;4.62;3.17;;;;;;;29.94;40.16;99808.38;1661531;85;21584;-72
2022/07/20 11:26:52;;;;;;;5.00;3.52;;;;;;;29.74;40.80;99804.05;1662985;86;21075;-72
2022/07/20 11:29:18;;;;;;;4.72;3.27;;;;;;;29.51;41.19;99808.20;1679993;85;21096;-72
2022/07/20 11:31:45;;;;;;;8.50;3.33;;;;;;;29.25;41.68;99791.89;1668794;86;21772;-71
2022/07/20 11:34:13;;;;;;;5.03;3.52;;;;;;;29.25;41.68;99791.89;1668766;86;21526;-72